createdAt,value
2018-11-06T00:00:33.356Z,11.80
2018-11-06T00:03:12.471Z,11.80
2018-11-06T00:05:45.981Z,11.80
2018-11-06T00:08:19.841Z,11.70
2018-11-06T00:10:53.433Z,11.80
2018-11-06T00:13:26.872Z,11.80
2018-11-06T00:16:01.089Z,11.70
2018-11-06T00:21:48.337Z,11.70
2018-11-06T00:24:21.906Z,11.70
2018-11-06T00:26:55.592Z,11.70
2018-11-06T00:29:29.153Z,11.60
2018-11-06T00:32:02.749Z,11.60
2018-11-06T00:34:36.326Z,11.60
2018-11-06T00:37:09.851Z,11.50
2018-11-06T00:39:43.278Z,11.60
2018-11-06T00:42:16.890Z,11.50
2018-11-06T00:44:50.503Z,12.90
2018-11-06T00:47:24.039Z,11.60
2018-11-06T00:49:57.559Z,11.60
2018-11-06T00:52:31.147Z,11.60
2018-11-06T00:55:05.981Z,11.70
2018-11-06T00:57:41.320Z,11.60
2018-11-06T01:00:15.948Z,11.70
2018-11-06T01:02:49.393Z,11.70
2018-11-06T01:05:22.899Z,11.70
2018-11-06T01:07:56.360Z,11.70
2018-11-06T01:10:29.947Z,11.70
2018-11-06T01:13:03.905Z,11.80
2018-11-06T01:15:37.376Z,11.80
2018-11-06T01:18:10.846Z,11.80
2018-11-06T01:20:44.316Z,11.90
2018-11-06T01:23:17.892Z,11.90
2018-11-06T01:25:51.428Z,11.90
2018-11-06T01:28:25.103Z,11.90
2018-11-06T01:30:58.613Z,11.90
2018-11-06T01:33:32.166Z,12.00
2018-11-06T01:36:05.796Z,11.90
2018-11-06T01:38:39.222Z,11.90
2018-11-06T01:41:12.666Z,11.90
2018-11-06T01:43:46.217Z,11.80
2018-11-06T01:46:19.800Z,11.90
2018-11-06T01:48:53.376Z,11.90
2018-11-06T01:51:26.959Z,11.80
2018-11-06T01:54:00.736Z,11.90
2018-11-06T01:56:34.157Z,11.90
2018-11-06T01:59:07.624Z,11.90
2018-11-06T02:01:41.204Z,11.80
2018-11-06T02:04:14.776Z,11.80
2018-11-06T02:06:48.341Z,11.80
2018-11-06T02:09:21.816Z,11.80
2018-11-06T02:11:55.321Z,11.80
2018-11-06T02:14:28.980Z,11.80
2018-11-06T02:17:02.507Z,11.80
2018-11-06T02:19:36.062Z,11.80
2018-11-06T02:22:09.854Z,11.70
2018-11-06T02:24:43.162Z,11.80
2018-11-06T02:27:16.573Z,11.80
2018-11-06T02:29:50.113Z,11.80
2018-11-06T02:32:23.445Z,11.80
2018-11-06T02:34:56.945Z,11.80
2018-11-06T02:37:30.396Z,11.80
2018-11-06T02:40:04.137Z,11.80
2018-11-06T02:42:37.555Z,11.90
2018-11-06T02:45:12.048Z,11.80
2018-11-06T02:47:45.525Z,11.80
2018-11-06T02:50:19.061Z,11.80
2018-11-06T02:52:52.640Z,11.80
2018-11-06T02:55:25.923Z,11.70
2018-11-06T02:57:59.414Z,11.70
2018-11-06T03:00:32.793Z,11.70
2018-11-06T03:03:06.206Z,11.70
2018-11-06T03:05:39.786Z,11.60
2018-11-06T03:08:13.195Z,11.60
2018-11-06T03:10:46.560Z,11.50
2018-11-06T03:13:20.236Z,11.50
2018-11-06T03:15:53.765Z,11.50
2018-11-06T03:18:27.241Z,11.60
2018-11-06T03:21:00.877Z,11.50
2018-11-06T03:23:34.437Z,11.50
2018-11-06T03:26:08.047Z,11.40
2018-11-06T03:28:41.637Z,11.30
2018-11-06T03:31:15.010Z,11.40
2018-11-06T03:33:48.640Z,11.30
2018-11-06T03:36:22.253Z,11.40
2018-11-06T03:38:55.827Z,11.40
2018-11-06T03:41:29.383Z,11.40
2018-11-06T03:44:02.875Z,11.40
2018-11-06T03:46:36.364Z,11.50
2018-11-06T03:49:10.715Z,11.40
2018-11-06T03:51:44.290Z,11.40
2018-11-06T03:54:17.738Z,11.30
2018-11-06T03:56:51.229Z,11.30
2018-11-06T03:59:24.721Z,11.20
2018-11-06T04:01:58.339Z,11.40
2018-11-06T04:04:31.928Z,11.30
2018-11-06T04:07:05.650Z,11.30
2018-11-06T04:09:39.221Z,11.40
2018-11-06T04:12:12.841Z,11.30
2018-11-06T04:14:46.420Z,11.30
2018-11-06T04:17:19.782Z,11.30
2018-11-06T04:19:53.417Z,11.30
2018-11-06T04:22:27.080Z,11.30
2018-11-06T04:25:00.671Z,11.30
2018-11-06T04:27:34.339Z,11.40
2018-11-06T04:30:09.314Z,11.20
2018-11-06T04:32:43.392Z,11.30
2018-11-06T04:35:17.017Z,11.10
2018-11-06T04:37:50.582Z,11.10
2018-11-06T04:40:24.136Z,11.10
2018-11-06T04:42:57.706Z,11.10
2018-11-06T04:45:31.329Z,11.10
2018-11-06T04:48:05.370Z,11.10
2018-11-06T04:50:38.746Z,11.10
2018-11-06T04:53:12.117Z,11.10
2018-11-06T04:55:45.634Z,11.10
2018-11-06T04:58:19.032Z,11.10
2018-11-06T05:00:52.590Z,11.10
2018-11-06T05:03:26.178Z,11.20
2018-11-06T05:05:59.569Z,11.00
2018-11-06T05:08:33.274Z,11.10
2018-11-06T05:11:06.911Z,11.10
2018-11-06T05:13:41.301Z,11.20
2018-11-06T05:16:14.853Z,11.20
2018-11-06T05:18:48.247Z,11.10
2018-11-06T05:21:21.520Z,11.10
2018-11-06T05:23:55.153Z,11.10
2018-11-06T05:26:28.712Z,11.00
2018-11-06T05:29:02.112Z,11.00
2018-11-06T05:31:35.572Z,11.10
2018-11-06T05:34:09.221Z,11.10
2018-11-06T05:36:42.536Z,11.10
2018-11-06T05:39:16.007Z,11.10
2018-11-06T05:41:49.497Z,11.00
2018-11-06T05:44:23.085Z,11.00
2018-11-06T05:46:56.448Z,10.90
2018-11-06T05:49:29.934Z,10.90
2018-11-06T05:52:03.498Z,11.00
2018-11-06T05:54:37.145Z,11.00
2018-11-06T05:57:10.511Z,11.00
2018-11-06T05:59:44.342Z,11.10
2018-11-06T06:02:17.619Z,11.10
2018-11-06T06:04:51.024Z,11.20
2018-11-06T06:07:24.885Z,11.10
2018-11-06T06:09:58.400Z,11.10
2018-11-06T06:12:32.020Z,11.10
2018-11-06T06:15:06.520Z,11.10
2018-11-06T06:17:40.082Z,11.10
2018-11-06T06:20:13.513Z,11.10
2018-11-06T06:22:47.062Z,11.10
2018-11-06T06:25:20.733Z,11.10
2018-11-06T06:27:54.314Z,11.10
2018-11-06T06:30:27.684Z,11.20
2018-11-06T06:33:01.255Z,11.10
2018-11-06T06:35:34.805Z,11.10
2018-11-06T06:38:08.131Z,11.20
2018-11-06T06:40:41.609Z,11.10
2018-11-06T06:43:14.993Z,11.20
2018-11-06T06:45:48.468Z,11.20
2018-11-06T06:48:21.842Z,11.30
2018-11-06T06:50:55.433Z,11.10
2018-11-06T06:53:28.933Z,11.30
2018-11-06T06:56:02.379Z,11.20
2018-11-06T06:58:37.435Z,11.30
2018-11-06T07:01:10.755Z,11.30
2018-11-06T07:03:44.173Z,11.30
2018-11-06T07:06:17.595Z,11.30
2018-11-06T07:08:51.099Z,11.30
2018-11-06T07:11:24.557Z,11.30
2018-11-06T07:13:58.110Z,11.40
2018-11-06T07:16:31.623Z,11.40
2018-11-06T07:19:05.249Z,11.40
2018-11-06T07:21:38.804Z,11.40
2018-11-06T07:24:12.369Z,11.50
2018-11-06T07:26:45.997Z,11.40
2018-11-06T07:29:19.545Z,11.50
2018-11-06T07:31:53.032Z,11.50
2018-11-06T07:34:26.580Z,11.60
2018-11-06T07:37:00.106Z,11.60
2018-11-06T07:39:33.519Z,11.60
2018-11-06T07:42:07.116Z,11.70
2018-11-06T07:44:41.427Z,11.70
2018-11-06T07:47:14.984Z,11.80
2018-11-06T07:49:49.527Z,11.80
2018-11-06T07:52:23.208Z,11.80
2018-11-06T07:54:56.789Z,11.90
2018-11-06T07:57:30.403Z,11.90
2018-11-06T08:00:06.570Z,12.00
2018-11-06T08:02:40.051Z,12.00
2018-11-06T08:05:14.036Z,12.10
2018-11-06T08:07:48.422Z,12.20
2018-11-06T08:10:22.444Z,12.20
2018-11-06T08:12:55.933Z,12.30
2018-11-06T08:15:29.495Z,12.30
2018-11-06T08:18:03.199Z,12.50
2018-11-06T08:20:36.840Z,12.50
2018-11-06T08:23:10.195Z,12.50
2018-11-06T08:25:43.806Z,12.50
2018-11-06T08:28:17.295Z,12.60
2018-11-06T08:30:50.871Z,12.50
2018-11-06T08:33:24.337Z,12.60
2018-11-06T08:35:58.022Z,12.50
2018-11-06T08:38:31.447Z,12.60
2018-11-06T08:41:05.017Z,12.60
2018-11-06T08:43:38.418Z,12.70
2018-11-06T08:46:12.058Z,12.60
2018-11-06T08:48:45.535Z,12.70
2018-11-06T08:51:18.953Z,12.80
2018-11-06T08:53:52.419Z,12.80
2018-11-06T08:56:26.033Z,13.00
2018-11-06T08:58:59.656Z,12.90
2018-11-06T09:01:33.272Z,12.90
2018-11-06T09:04:06.741Z,13.00
2018-11-06T09:06:40.184Z,13.00
2018-11-06T09:09:13.581Z,13.10
2018-11-06T09:11:46.928Z,13.10
2018-11-06T09:14:20.366Z,13.10
2018-11-06T09:16:53.959Z,13.20
2018-11-06T09:19:27.676Z,13.30
2018-11-06T09:22:01.070Z,13.40
2018-11-06T09:24:34.571Z,13.40
2018-11-06T09:27:08.132Z,13.40
2018-11-06T09:29:41.617Z,13.50
2018-11-06T09:32:14.967Z,13.50
2018-11-06T09:34:48.357Z,13.60
2018-11-06T09:37:21.819Z,13.50
2018-11-06T09:39:55.399Z,13.50
2018-11-06T09:42:28.944Z,13.50
2018-11-06T09:45:02.771Z,13.50
2018-11-06T09:47:36.281Z,13.50
2018-11-06T09:50:12.128Z,13.50
2018-11-06T09:52:46.258Z,13.60
2018-11-06T09:55:19.828Z,13.60
2018-11-06T09:57:53.380Z,13.60
2018-11-06T10:00:27.000Z,13.60
2018-11-06T10:03:00.329Z,13.70
2018-11-06T10:05:33.762Z,13.60
2018-11-06T10:08:07.214Z,13.70
2018-11-06T10:10:40.595Z,13.60
2018-11-06T10:13:14.142Z,13.60
2018-11-06T10:15:47.665Z,13.70
2018-11-06T10:18:21.192Z,13.60
2018-11-06T10:20:54.784Z,13.70
2018-11-06T10:23:28.284Z,13.70
2018-11-06T10:26:01.925Z,13.70
2018-11-06T10:28:35.500Z,13.70
2018-11-06T10:31:09.087Z,13.70
2018-11-06T10:33:42.668Z,13.80
2018-11-06T10:36:16.221Z,13.80
2018-11-06T10:38:49.821Z,13.80
2018-11-06T10:41:23.326Z,13.80
2018-11-06T10:43:57.003Z,13.90
2018-11-06T10:46:30.556Z,13.80
2018-11-06T10:49:04.414Z,13.80
2018-11-06T10:51:37.953Z,13.80
2018-11-06T10:54:11.325Z,13.90
2018-11-06T10:56:44.809Z,13.90
2018-11-06T10:59:18.427Z,13.90
2018-11-06T11:01:57.572Z,13.90
2018-11-06T11:04:31.558Z,13.90
2018-11-06T11:07:05.365Z,13.90
2018-11-06T11:09:38.994Z,13.90
2018-11-06T11:12:12.414Z,13.90
2018-11-06T11:14:46.014Z,13.90
2018-11-06T11:17:19.358Z,14.00
2018-11-06T11:19:52.726Z,14.00
2018-11-06T11:22:26.285Z,14.00
2018-11-06T11:24:59.630Z,14.00
2018-11-06T11:27:33.049Z,14.10
2018-11-06T11:30:08.482Z,14.10
2018-11-06T11:32:43.503Z,14.10
2018-11-06T11:35:16.938Z,14.10
2018-11-06T11:37:50.732Z,14.00
2018-11-06T11:40:24.084Z,14.10
2018-11-06T11:42:57.524Z,14.10
2018-11-06T11:45:31.130Z,14.10
2018-11-06T11:48:04.706Z,14.00
2018-11-06T11:50:38.021Z,14.10
2018-11-06T11:53:11.405Z,14.20
2018-11-06T11:55:44.924Z,14.10
2018-11-06T11:58:18.336Z,14.10
2018-11-06T12:00:51.813Z,14.10
2018-11-06T12:03:25.289Z,14.10
2018-11-06T12:05:58.788Z,14.10
2018-11-06T12:08:32.188Z,14.20
2018-11-06T12:11:05.634Z,14.10
2018-11-06T12:13:39.189Z,14.10
2018-11-06T12:16:12.705Z,14.10
2018-11-06T12:18:46.240Z,14.20
2018-11-06T12:21:19.539Z,14.20
2018-11-06T12:23:53.096Z,14.20
2018-11-06T12:26:26.696Z,14.20
2018-11-06T12:29:00.217Z,14.20
2018-11-06T12:31:33.767Z,14.10
2018-11-06T12:34:07.243Z,14.20
2018-11-06T12:36:40.794Z,14.20
2018-11-06T12:39:14.064Z,14.20
2018-11-06T12:41:47.569Z,14.20
2018-11-06T12:44:20.849Z,14.20
2018-11-06T12:46:54.445Z,14.20
2018-11-06T12:49:27.985Z,14.20
2018-11-06T12:52:01.352Z,14.20
2018-11-06T12:54:34.781Z,14.20
2018-11-06T12:57:08.237Z,14.30
2018-11-06T12:59:41.913Z,14.20
2018-11-06T13:02:15.472Z,14.20
2018-11-06T13:04:48.908Z,14.20
2018-11-06T13:07:22.308Z,14.20
2018-11-06T13:09:55.883Z,14.30
2018-11-06T13:12:29.229Z,14.30
2018-11-06T13:15:02.586Z,14.30
2018-11-06T13:17:36.551Z,14.30
2018-11-06T13:20:12.642Z,14.30
2018-11-06T13:22:46.235Z,13.90
2018-11-06T13:25:19.856Z,14.30
2018-11-06T13:27:53.499Z,14.30
2018-11-06T13:30:27.235Z,14.30
2018-11-06T13:33:00.679Z,14.30
2018-11-06T13:35:34.364Z,14.30
2018-11-06T13:38:07.659Z,14.30
2018-11-06T13:40:41.015Z,14.30
2018-11-06T13:43:14.430Z,14.30
2018-11-06T13:45:47.958Z,14.30
2018-11-06T13:48:21.481Z,14.30
2018-11-06T13:50:54.971Z,14.30
2018-11-06T13:53:28.387Z,14.30
2018-11-06T13:56:01.922Z,14.30
2018-11-06T13:58:35.432Z,14.40
2018-11-06T14:01:08.684Z,14.40
2018-11-06T14:03:42.217Z,14.40
2018-11-06T14:06:15.664Z,14.40
2018-11-06T14:08:49.229Z,14.40
2018-11-06T14:11:22.613Z,14.40
2018-11-06T14:13:55.982Z,14.40
2018-11-06T14:16:29.344Z,14.40
2018-11-06T14:19:02.936Z,14.40
2018-11-06T14:21:36.505Z,14.40
2018-11-06T14:24:10.126Z,14.40
2018-11-06T14:26:43.769Z,14.40
2018-11-06T14:29:17.390Z,14.40
2018-11-06T14:31:50.983Z,14.40
2018-11-06T14:34:24.488Z,14.40
2018-11-06T14:36:58.074Z,14.40
2018-11-06T14:39:31.491Z,14.40
2018-11-06T14:42:05.174Z,14.40
2018-11-06T14:44:38.616Z,14.40
2018-11-06T14:47:12.154Z,14.40
2018-11-06T14:49:45.641Z,14.40
2018-11-06T14:52:18.986Z,14.40
2018-11-06T14:54:52.531Z,14.40
2018-11-06T14:57:25.952Z,14.30
2018-11-06T14:59:59.542Z,14.30
2018-11-06T15:02:32.928Z,14.40
2018-11-06T15:05:06.437Z,14.30
2018-11-06T15:07:40.028Z,14.30
2018-11-06T15:10:14.110Z,14.30
2018-11-06T15:12:47.690Z,14.30
2018-11-06T15:15:21.048Z,14.30
2018-11-06T15:17:54.656Z,14.30
2018-11-06T15:20:28.370Z,14.20
2018-11-06T15:23:01.856Z,14.20
2018-11-06T15:25:35.337Z,14.20
2018-11-06T15:28:08.856Z,14.20
2018-11-06T15:30:42.433Z,14.10
2018-11-06T15:33:15.936Z,14.10
2018-11-06T15:35:49.288Z,14.10
2018-11-06T15:38:22.753Z,14.10
2018-11-06T15:40:56.290Z,14.10
2018-11-06T15:43:29.890Z,14.00
2018-11-06T15:46:04.129Z,14.00
2018-11-06T15:48:37.628Z,14.00
2018-11-06T15:51:11.172Z,14.00
2018-11-06T15:53:44.625Z,14.00
2018-11-06T15:56:18.028Z,13.90
2018-11-06T15:58:52.107Z,13.90
2018-11-06T16:01:26.481Z,13.90
2018-11-06T16:03:59.849Z,13.90
2018-11-06T16:06:33.327Z,13.90
2018-11-06T16:09:07.037Z,13.80
2018-11-06T16:11:40.517Z,13.80
2018-11-06T16:14:13.936Z,13.70
2018-11-06T16:16:47.438Z,13.70
2018-11-06T16:19:20.952Z,13.70
2018-11-06T16:21:54.478Z,13.60
2018-11-06T16:24:27.953Z,13.60
2018-11-06T16:27:01.313Z,13.60
2018-11-06T16:29:34.795Z,13.60
2018-11-06T16:32:08.261Z,13.60
2018-11-06T16:34:41.821Z,13.60
2018-11-06T16:37:15.296Z,13.50
2018-11-06T16:39:48.815Z,13.50
2018-11-06T16:42:22.341Z,13.50
2018-11-06T16:44:56.686Z,13.50
2018-11-06T16:47:30.112Z,13.50
2018-11-06T16:50:04.328Z,13.50
2018-11-06T16:52:37.982Z,13.50
2018-11-06T16:55:11.739Z,13.40
2018-11-06T16:57:45.539Z,13.40
2018-11-06T17:00:21.633Z,13.40
2018-11-06T17:02:54.932Z,13.40
2018-11-06T17:05:28.506Z,13.40
2018-11-06T17:08:01.970Z,13.40
2018-11-06T17:10:35.416Z,13.30
2018-11-06T17:13:08.819Z,13.30
2018-11-06T17:15:42.157Z,13.30
2018-11-06T17:18:16.213Z,13.30
2018-11-06T17:20:49.661Z,13.30
2018-11-06T17:23:23.887Z,13.30
2018-11-06T17:25:57.529Z,13.30
2018-11-06T17:28:31.102Z,13.20
2018-11-06T17:31:04.750Z,13.20
2018-11-06T17:33:38.212Z,13.20
2018-11-06T17:36:11.733Z,13.20
2018-11-06T17:38:45.763Z,13.10
2018-11-06T17:41:19.445Z,13.10
2018-11-06T17:43:52.930Z,13.10
2018-11-06T17:46:26.337Z,13.10
2018-11-06T17:48:59.745Z,13.10
2018-11-06T17:51:33.176Z,13.10
2018-11-06T17:54:06.736Z,13.00
2018-11-06T17:56:40.253Z,13.00
2018-11-06T17:59:14.128Z,13.00
2018-11-06T18:01:47.619Z,13.00
2018-11-06T18:04:21.374Z,13.00
2018-11-06T18:06:54.744Z,13.00
2018-11-06T18:09:28.390Z,13.00
2018-11-06T18:12:02.073Z,12.90
2018-11-06T18:14:35.622Z,13.00
2018-11-06T18:17:09.166Z,13.00
2018-11-06T18:19:42.464Z,12.90
2018-11-06T18:22:15.896Z,12.80
2018-11-06T18:24:49.334Z,12.90
2018-11-06T18:27:22.875Z,12.90
2018-11-06T18:29:56.286Z,12.90
2018-11-06T18:32:29.861Z,12.90
2018-11-06T18:35:03.822Z,12.80
2018-11-06T18:37:37.424Z,12.90
2018-11-06T18:40:14.915Z,12.80
2018-11-06T18:42:49.312Z,12.80
2018-11-06T18:45:22.861Z,12.80
2018-11-06T18:47:56.426Z,12.70
2018-11-06T18:50:29.749Z,12.80
2018-11-06T18:53:03.364Z,12.70
2018-11-06T18:55:36.941Z,12.70
2018-11-06T18:58:10.569Z,12.70
2018-11-06T19:00:44.142Z,12.70
2018-11-06T19:03:17.701Z,12.70
2018-11-06T19:05:51.274Z,12.70
2018-11-06T19:08:24.997Z,12.70
2018-11-06T19:10:58.560Z,12.60
2018-11-06T19:13:31.967Z,12.60
2018-11-06T19:16:05.885Z,12.60
2018-11-06T19:18:39.431Z,12.60
2018-11-06T19:21:12.921Z,12.40
2018-11-06T19:23:46.432Z,12.50
2018-11-06T19:26:19.877Z,12.60
2018-11-06T19:28:53.456Z,12.50
2018-11-06T19:31:26.889Z,12.50
2018-11-06T19:34:00.241Z,12.50
2018-11-06T19:36:33.622Z,12.50
2018-11-06T19:39:08.937Z,12.50
2018-11-06T19:41:42.387Z,12.40
2018-11-06T19:44:15.978Z,12.40
2018-11-06T19:46:49.501Z,12.40
2018-11-06T19:49:22.959Z,12.40
2018-11-06T19:51:56.405Z,12.30
2018-11-06T19:54:29.948Z,12.40
2018-11-06T19:57:03.396Z,12.40
2018-11-06T19:59:36.966Z,12.40
2018-11-06T20:02:10.450Z,12.40
2018-11-06T20:04:37.743Z,12.50
2018-11-06T20:07:05.001Z,12.60
2018-11-06T20:09:32.293Z,12.70
2018-11-06T20:12:05.625Z,12.60
2018-11-06T20:14:39.032Z,12.70
2018-11-06T20:17:12.416Z,12.70
2018-11-06T20:19:45.808Z,12.70
2018-11-06T20:22:19.193Z,12.70
2018-11-06T20:24:52.754Z,12.60
2018-11-06T20:27:26.250Z,12.60
2018-11-06T20:29:59.849Z,12.50
2018-11-06T20:32:33.234Z,12.60
2018-11-06T20:35:07.688Z,12.60
2018-11-06T20:37:41.256Z,12.70
2018-11-06T20:40:17.996Z,12.60
2018-11-06T20:42:51.476Z,12.70
2018-11-06T20:45:24.771Z,12.70
2018-11-06T20:47:58.124Z,12.70
2018-11-06T20:50:31.614Z,12.70
2018-11-06T20:53:05.128Z,12.60
2018-11-06T20:55:38.408Z,12.70
2018-11-06T20:58:14.126Z,12.70
2018-11-06T21:00:47.496Z,12.70
2018-11-06T21:06:07.555Z,12.70
2018-11-06T21:08:40.885Z,12.70
2018-11-06T21:11:14.554Z,12.70
2018-11-06T21:13:48.169Z,12.70
2018-11-06T21:16:21.792Z,12.80
2018-11-06T21:18:55.240Z,12.80
2018-11-06T21:21:28.821Z,12.70
2018-11-06T21:24:02.245Z,12.70
2018-11-06T21:26:36.780Z,12.60
2018-11-06T21:29:10.187Z,12.60
2018-11-06T21:31:43.760Z,12.60
2018-11-06T21:34:17.278Z,12.60
2018-11-06T21:36:50.638Z,12.50
2018-11-06T21:39:24.069Z,12.60
2018-11-06T21:41:57.831Z,12.60
2018-11-06T21:44:31.220Z,12.50
2018-11-06T21:47:04.681Z,12.60
2018-11-06T21:49:38.098Z,12.60
2018-11-06T21:52:11.612Z,12.60
2018-11-06T21:54:45.180Z,12.50
2018-11-06T21:57:18.519Z,12.50
2018-11-06T21:59:51.845Z,12.50
2018-11-06T22:02:25.189Z,12.50
2018-11-06T22:04:58.650Z,12.50
2018-11-06T22:07:32.181Z,12.60
2018-11-06T22:10:06.797Z,12.50
2018-11-06T22:12:40.990Z,12.50
2018-11-06T22:15:15.522Z,12.50
2018-11-06T22:17:48.952Z,12.60
2018-11-06T22:20:22.971Z,12.50
2018-11-06T22:22:57.228Z,12.50
2018-11-06T22:25:30.545Z,12.50
2018-11-06T22:28:04.400Z,12.50
2018-11-06T22:30:37.840Z,12.50
2018-11-06T22:33:11.255Z,12.40
2018-11-06T22:35:44.744Z,12.40
2018-11-06T22:38:18.092Z,12.50
2018-11-06T22:40:51.553Z,12.40
2018-11-06T22:43:24.979Z,12.30
2018-11-06T22:45:58.376Z,12.30
2018-11-06T22:48:31.787Z,12.30
2018-11-06T22:51:05.621Z,12.30
2018-11-06T22:53:39.066Z,12.40
2018-11-06T22:56:12.578Z,12.40
2018-11-06T22:58:46.124Z,12.50
2018-11-06T23:01:24.240Z,12.50
2018-11-06T23:03:57.581Z,12.50
2018-11-06T23:06:31.140Z,12.50
2018-11-06T23:09:07.091Z,12.50
2018-11-06T23:11:40.448Z,12.50
2018-11-06T23:14:13.853Z,12.40
2018-11-06T23:16:47.294Z,12.40
2018-11-06T23:19:20.709Z,12.40
2018-11-06T23:21:54.190Z,12.40
2018-11-06T23:24:27.705Z,12.40
2018-11-06T23:27:01.136Z,12.40
2018-11-06T23:29:34.567Z,12.40
2018-11-06T23:32:07.899Z,12.50
2018-11-06T23:34:41.313Z,12.50
2018-11-06T23:37:14.677Z,12.50
2018-11-06T23:39:48.063Z,12.40
2018-11-06T23:42:21.545Z,12.50
2018-11-06T23:44:55.030Z,12.50
2018-11-06T23:47:28.616Z,12.50
2018-11-06T23:50:02.397Z,12.50
2018-11-06T23:52:35.683Z,12.40
2018-11-06T23:55:09.484Z,12.40
2018-11-06T23:57:43.028Z,12.40
